sensor_id;sensor_type;location;lat;lon;timestamp;temperature;humidity
12682;DHT22;6405;59.208;18.216;2024-03-23T00:54:39;2.70;99.90
12682;DHT22;6405;59.208;18.216;2024-03-23T00:57:04;2.70;99.90
12682;DHT22;6405;59.208;18.216;2024-03-23T00:59:30;2.60;99.90
12682;DHT22;6405;59.208;18.216;2024-03-23T01:01:56;2.50;99.90
12682;DHT22;6405;59.208;18.216;2024-03-23T01:04:22;2.50;99.90
12682;DHT22;6405;59.208;18.216;2024-03-23T01:06:48;2.60;99.90
12682;DHT22;6405;59.208;18.216;2024-03-23T01:09:13;2.50;99.90
12682;DHT22;6405;59.208;18.216;2024-03-23T01:11:39;2.50;99.90
12682;DHT22;6405;59.208;18.216;2024-03-23T01:14:05;2.40;99.90
12682;DHT22;6405;59.208;18.216;2024-03-23T01:16:31;2.40;99.90
12682;DHT22;6405;59.208;18.216;2024-03-23T01:18:57;2.30;99.90
12682;DHT22;6405;59.208;18.216;2024-03-23T01:21:23;2.30;99.90
12682;DHT22;6405;59.208;18.216;2024-03-23T01:23:49;2.20;99.90
12682;DHT22;6405;59.208;18.216;2024-03-23T01:26:15;2.10;99.90
12682;DHT22;6405;59.208;18.216;2024-03-23T01:28:40;2.10;99.90
12682;DHT22;6405;59.208;18.216;2024-03-23T01:31:06;2.10;99.90
12682;DHT22;6405;59.208;18.216;2024-03-23T01:33:32;1.90;99.90
12682;DHT22;6405;59.208;18.216;2024-03-23T01:35:57;2.10;99.90
12682;DHT22;6405;59.208;18.216;2024-03-23T01:38:23;2.10;99.90
12682;DHT22;6405;59.208;18.216;2024-03-23T01:40:49;2.10;99.90
12682;DHT22;6405;59.208;18.216;2024-03-23T01:43:15;2.10;99.90
12682;DHT22;6405;59.208;18.216;2024-03-23T01:45:41;2.30;99.90
12682;DHT22;6405;59.208;18.216;2024-03-23T01:48:07;2.00;99.90
12682;DHT22;6405;59.208;18.216;2024-03-23T01:50:33;2.00;99.90
12682;DHT22;6405;59.208;18.216;2024-03-23T01:53:02;2.10;99.90
12682;DHT22;6405;59.208;18.216;2024-03-23T01:55:28;1.90;99.90
12682;DHT22;6405;59.208;18.216;2024-03-23T01:57:56;2.00;99.90
12682;DHT22;6405;59.208;18.216;2024-03-23T02:00:22;2.00;99.90
12682;DHT22;6405;59.208;18.216;2024-03-23T02:02:48;2.10;99.90
12682;DHT22;6405;59.208;18.216;2024-03-23T02:05:14;2.00;99.90
12682;DHT22;6405;59.208;18.216;2024-03-23T02:07:41;2.00;99.90
12682;DHT22;6405;59.208;18.216;2024-03-23T02:10:08;2.10;99.90
12682;DHT22;6405;59.208;18.216;2024-03-23T02:12:35;1.90;99.90
12682;DHT22;6405;59.208;18.216;2024-03-23T02:15:01;2.00;99.90
12682;DHT22;6405;59.208;18.216;2024-03-23T02:17:28;2.00;99.90
12682;DHT22;6405;59.208;18.216;2024-03-23T02:19:54;1.90;99.90
12682;DHT22;6405;59.208;18.216;2024-03-23T02:22:20;2.10;99.90
12682;DHT22;6405;59.208;18.216;2024-03-23T02:24:46;1.90;99.90
12682;DHT22;6405;59.208;18.216;2024-03-23T02:27:12;1.90;99.90
12682;DHT22;6405;59.208;18.216;2024-03-23T02:29:37;1.90;99.90
12682;DHT22;6405;59.208;18.216;2024-03-23T02:32:03;1.90;99.90
12682;DHT22;6405;59.208;18.216;2024-03-23T02:34:29;1.90;99.90
12682;DHT22;6405;59.208;18.216;2024-03-23T02:36:55;2.00;99.90
12682;DHT22;6405;59.208;18.216;2024-03-23T02:39:20;1.90;99.90
12682;DHT22;6405;59.208;18.216;2024-03-23T02:41:46;1.90;99.90
12682;DHT22;6405;59.208;18.216;2024-03-23T02:44:13;1.90;99.90
12682;DHT22;6405;59.208;18.216;2024-03-23T02:46:39;1.90;99.90
12682;DHT22;6405;59.208;18.216;2024-03-23T02:49:05;1.80;99.90
12682;DHT22;6405;59.208;18.216;2024-03-23T02:51:31;1.80;99.90
12682;DHT22;6405;59.208;18.216;2024-03-23T02:53:57;1.80;99.90
12682;DHT22;6405;59.208;18.216;2024-03-23T02:56:22;1.80;99.90
12682;DHT22;6405;59.208;18.216;2024-03-23T02:58:48;2.00;99.90
12682;DHT22;6405;59.208;18.216;2024-03-23T03:01:14;1.70;99.90
12682;DHT22;6405;59.208;18.216;2024-03-23T03:03:40;1.70;99.90
12682;DHT22;6405;59.208;18.216;2024-03-23T03:06:05;1.70;99.90
12682;DHT22;6405;59.208;18.216;2024-03-23T03:08:31;1.70;99.90
12682;DHT22;6405;59.208;18.216;2024-03-23T03:10:57;1.70;99.90
12682;DHT22;6405;59.208;18.216;2024-03-23T03:13:22;1.60;99.90
12682;DHT22;6405;59.208;18.216;2024-03-23T03:15:48;1.60;99.90
12682;DHT22;6405;59.208;18.216;2024-03-23T03:18:14;1.60;99.90
12682;DHT22;6405;59.208;18.216;2024-03-23T03:20:40;1.60;99.90
12682;DHT22;6405;59.208;18.216;2024-03-23T03:23:07;1.50;99.90
12682;DHT22;6405;59.208;18.216;2024-03-23T03:25:32;1.50;99.90
12682;DHT22;6405;59.208;18.216;2024-03-23T03:27:58;1.60;99.90
12682;DHT22;6405;59.208;18.216;2024-03-23T03:30:24;1.40;99.90
12682;DHT22;6405;59.208;18.216;2024-03-23T03:32:53;1.40;99.90
12682;DHT22;6405;59.208;18.216;2024-03-23T03:35:19;1.40;99.90
12682;DHT22;6405;59.208;18.216;2024-03-23T03:37:44;1.50;99.90
12682;DHT22;6405;59.208;18.216;2024-03-23T03:40:11;1.40;99.90
12682;DHT22;6405;59.208;18.216;2024-03-23T03:42:37;1.40;99.90
12682;DHT22;6405;59.208;18.216;2024-03-23T03:45:03;1.40;99.90
12682;DHT22;6405;59.208;18.216;2024-03-23T03:47:30;1.30;99.90
12682;DHT22;6405;59.208;18.216;2024-03-23T03:49:56;1.30;99.90
12682;DHT22;6405;59.208;18.216;2024-03-23T03:52:21;1.40;99.90
12682;DHT22;6405;59.208;18.216;2024-03-23T03:54:47;1.30;99.90
12682;DHT22;6405;59.208;18.216;2024-03-23T03:57:13;1.30;99.90
12682;DHT22;6405;59.208;18.216;2024-03-23T03:59:39;1.20;99.90
12682;DHT22;6405;59.208;18.216;2024-03-23T04:02:04;1.20;99.90
12682;DHT22;6405;59.208;18.216;2024-03-23T04:04:30;1.20;99.90
12682;DHT22;6405;59.208;18.216;2024-03-23T04:07:03;1.20;99.90
12682;DHT22;6405;59.208;18.216;2024-03-23T04:09:30;1.10;99.90
12682;DHT22;6405;59.208;18.216;2024-03-23T04:11:56;1.20;99.90
12682;DHT22;6405;59.208;18.216;2024-03-23T04:14:22;1.30;99.90
12682;DHT22;6405;59.208;18.216;2024-03-23T04:16:47;1.40;99.90
12682;DHT22;6405;59.208;18.216;2024-03-23T04:19:13;1.20;99.90
12682;DHT22;6405;59.208;18.216;2024-03-23T04:21:40;1.20;99.90
12682;DHT22;6405;59.208;18.216;2024-03-23T04:24:06;1.30;99.90
12682;DHT22;6405;59.208;18.216;2024-03-23T04:26:41;1.20;99.90
12682;DHT22;6405;59.208;18.216;2024-03-23T04:29:07;1.20;99.90
12682;DHT22;6405;59.208;18.216;2024-03-23T04:31:32;1.20;99.90
12682;DHT22;6405;59.208;18.216;2024-03-23T04:34:03;1.30;99.90
12682;DHT22;6405;59.208;18.216;2024-03-23T04:36:29;1.20;99.90
12682;DHT22;6405;59.208;18.216;2024-03-23T04:38:55;1.30;99.90
12682;DHT22;6405;59.208;18.216;2024-03-23T04:41:20;1.20;99.90
12682;DHT22;6405;59.208;18.216;2024-03-23T04:43:46;1.20;99.90
12682;DHT22;6405;59.208;18.216;2024-03-23T04:46:12;1.20;99.90
12682;DHT22;6405;59.208;18.216;2024-03-23T04:48:37;1.10;99.90
12682;DHT22;6405;59.208;18.216;2024-03-23T04:51:04;1.20;99.90
12682;DHT22;6405;59.208;18.216;2024-03-23T04:53:29;1.00;99.90
12682;DHT22;6405;59.208;18.216;2024-03-23T04:55:56;1.10;99.90
12682;DHT22;6405;59.208;18.216;2024-03-23T04:58:25;1.00;99.90
12682;DHT22;6405;59.208;18.216;2024-03-23T05:00:54;1.20;99.90
12682;DHT22;6405;59.208;18.216;2024-03-23T05:03:20;1.10;99.90
12682;DHT22;6405;59.208;18.216;2024-03-23T05:05:49;1.00;99.90
12682;DHT22;6405;59.208;18.216;2024-03-23T05:08:16;1.00;99.90
12682;DHT22;6405;59.208;18.216;2024-03-23T05:10:43;1.00;99.90
12682;DHT22;6405;59.208;18.216;2024-03-23T05:13:09;1.10;99.90
12682;DHT22;6405;59.208;18.216;2024-03-23T05:15:35;1.20;99.90
12682;DHT22;6405;59.208;18.216;2024-03-23T05:18:00;1.00;99.90
12682;DHT22;6405;59.208;18.216;2024-03-23T05:20:26;1.10;99.90
12682;DHT22;6405;59.208;18.216;2024-03-23T05:22:53;1.10;99.90
12682;DHT22;6405;59.208;18.216;2024-03-23T05:25:18;1.20;99.90
12682;DHT22;6405;59.208;18.216;2024-03-23T05:27:44;1.10;99.90
12682;DHT22;6405;59.208;18.216;2024-03-23T05:30:10;1.10;99.90
12682;DHT22;6405;59.208;18.216;2024-03-23T05:32:36;1.10;99.90
12682;DHT22;6405;59.208;18.216;2024-03-23T05:35:02;1.20;99.90
12682;DHT22;6405;59.208;18.216;2024-03-23T05:37:27;1.10;99.90
12682;DHT22;6405;59.208;18.216;2024-03-23T05:39:53;1.10;99.90
12682;DHT22;6405;59.208;18.216;2024-03-23T05:42:19;1.20;99.90
12682;DHT22;6405;59.208;18.216;2024-03-23T05:44:45;1.30;99.90
12682;DHT22;6405;59.208;18.216;2024-03-23T05:47:11;1.40;99.90
12682;DHT22;6405;59.208;18.216;2024-03-23T05:49:40;1.30;99.90
12682;DHT22;6405;59.208;18.216;2024-03-23T05:52:11;1.30;99.90
12682;DHT22;6405;59.208;18.216;2024-03-23T05:54:37;1.40;99.90
12682;DHT22;6405;59.208;18.216;2024-03-23T05:57:03;1.40;99.90
12682;DHT22;6405;59.208;18.216;2024-03-23T05:59:29;1.40;99.90
12682;DHT22;6405;59.208;18.216;2024-03-23T06:01:55;1.50;99.90
12682;DHT22;6405;59.208;18.216;2024-03-23T06:04:21;1.50;99.90
12682;DHT22;6405;59.208;18.216;2024-03-23T06:06:50;1.50;99.90
12682;DHT22;6405;59.208;18.216;2024-03-23T06:09:17;1.60;99.90
12682;DHT22;6405;59.208;18.216;2024-03-23T06:11:43;1.70;99.90
12682;DHT22;6405;59.208;18.216;2024-03-23T06:14:09;1.60;99.90
12682;DHT22;6405;59.208;18.216;2024-03-23T06:16:34;1.60;99.90
12682;DHT22;6405;59.208;18.216;2024-03-23T06:19:00;1.80;99.90
12682;DHT22;6405;59.208;18.216;2024-03-23T06:21:29;1.80;99.90
12682;DHT22;6405;59.208;18.216;2024-03-23T06:23:54;1.80;99.90
12682;DHT22;6405;59.208;18.216;2024-03-23T06:26:20;1.80;99.90
12682;DHT22;6405;59.208;18.216;2024-03-23T06:28:47;1.80;99.90
12682;DHT22;6405;59.208;18.216;2024-03-23T06:31:13;1.80;99.90
12682;DHT22;6405;59.208;18.216;2024-03-23T06:33:39;1.90;99.90
12682;DHT22;6405;59.208;18.216;2024-03-23T06:36:07;1.90;99.90
12682;DHT22;6405;59.208;18.216;2024-03-23T06:38:34;1.90;99.90
12682;DHT22;6405;59.208;18.216;2024-03-23T06:41:02;2.00;99.90
12682;DHT22;6405;59.208;18.216;2024-03-23T06:43:28;2.10;99.90
12682;DHT22;6405;59.208;18.216;2024-03-23T06:45:54;2.10;99.90
12682;DHT22;6405;59.208;18.216;2024-03-23T06:48:20;2.20;99.90
12682;DHT22;6405;59.208;18.216;2024-03-23T06:50:47;2.20;99.90
12682;DHT22;6405;59.208;18.216;2024-03-23T06:53:15;2.20;99.90
12682;DHT22;6405;59.208;18.216;2024-03-23T06:55:41;2.30;99.90
12682;DHT22;6405;59.208;18.216;2024-03-23T06:58:07;2.30;99.90
12682;DHT22;6405;59.208;18.216;2024-03-23T07:00:33;2.30;99.90
12682;DHT22;6405;59.208;18.216;2024-03-23T07:03:02;2.40;99.90
12682;DHT22;6405;59.208;18.216;2024-03-23T07:05:29;2.50;99.90
12682;DHT22;6405;59.208;18.216;2024-03-23T07:07:55;2.50;99.90
12682;DHT22;6405;59.208;18.216;2024-03-23T07:10:20;2.70;99.90
12682;DHT22;6405;59.208;18.216;2024-03-23T07:12:46;2.70;99.90
12682;DHT22;6405;59.208;18.216;2024-03-23T07:15:11;2.90;99.90
12682;DHT22;6405;59.208;18.216;2024-03-23T07:17:37;3.00;99.90
12682;DHT22;6405;59.208;18.216;2024-03-23T07:20:03;3.10;99.90
12682;DHT22;6405;59.208;18.216;2024-03-23T07:22:32;3.20;99.90
12682;DHT22;6405;59.208;18.216;2024-03-23T07:25:01;3.20;99.90
12682;DHT22;6405;59.208;18.216;2024-03-23T07:27:27;3.30;99.90
12682;DHT22;6405;59.208;18.216;2024-03-23T07:29:52;3.40;99.90
12682;DHT22;6405;59.208;18.216;2024-03-23T07:32:18;3.40;99.90
12682;DHT22;6405;59.208;18.216;2024-03-23T07:34:44;3.50;99.90
12682;DHT22;6405;59.208;18.216;2024-03-23T07:37:12;3.60;99.90
12682;DHT22;6405;59.208;18.216;2024-03-23T07:39:39;3.80;99.90
12682;DHT22;6405;59.208;18.216;2024-03-23T07:42:05;3.80;99.90
12682;DHT22;6405;59.208;18.216;2024-03-23T07:44:31;3.80;99.90
12682;DHT22;6405;59.208;18.216;2024-03-23T07:46:58;4.00;99.90
12682;DHT22;6405;59.208;18.216;2024-03-23T07:49:24;4.00;99.90
12682;DHT22;6405;59.208;18.216;2024-03-23T07:51:49;4.00;99.90
12682;DHT22;6405;59.208;18.216;2024-03-23T07:54:15;4.00;99.90
12682;DHT22;6405;59.208;18.216;2024-03-23T07:56:41;4.10;99.90
12682;DHT22;6405;59.208;18.216;2024-03-23T07:59:06;4.20;99.90
12682;DHT22;6405;59.208;18.216;2024-03-23T08:01:32;4.20;99.90
12682;DHT22;6405;59.208;18.216;2024-03-23T08:03:58;4.30;99.90
12682;DHT22;6405;59.208;18.216;2024-03-23T08:06:24;4.40;99.90
12682;DHT22;6405;59.208;18.216;2024-03-23T08:08:55;4.40;99.90
12682;DHT22;6405;59.208;18.216;2024-03-23T08:11:29;4.40;99.90
12682;DHT22;6405;59.208;18.216;2024-03-23T08:13:55;4.50;99.90
12682;DHT22;6405;59.208;18.216;2024-03-23T08:16:21;4.50;99.90
12682;DHT22;6405;59.208;18.216;2024-03-23T08:18:48;4.50;99.90
12682;DHT22;6405;59.208;18.216;2024-03-23T08:21:13;4.60;99.90
12682;DHT22;6405;59.208;18.216;2024-03-23T08:23:39;4.70;99.90
12682;DHT22;6405;59.208;18.216;2024-03-23T08:26:13;4.80;99.90
12682;DHT22;6405;59.208;18.216;2024-03-23T08:28:39;4.90;99.90
12682;DHT22;6405;59.208;18.216;2024-03-23T08:31:08;4.90;99.90
12682;DHT22;6405;59.208;18.216;2024-03-23T08:33:34;5.10;99.90
12682;DHT22;6405;59.208;18.216;2024-03-23T08:36:05;5.10;99.90
12682;DHT22;6405;59.208;18.216;2024-03-23T08:38:31;5.20;99.90
12682;DHT22;6405;59.208;18.216;2024-03-23T08:41:03;5.20;99.90
12682;DHT22;6405;59.208;18.216;2024-03-23T08:43:29;5.30;99.90
12682;DHT22;6405;59.208;18.216;2024-03-23T08:46:07;5.40;99.90
12682;DHT22;6405;59.208;18.216;2024-03-23T08:48:43;5.50;99.90
12682;DHT22;6405;59.208;18.216;2024-03-23T08:51:10;5.50;99.90
12682;DHT22;6405;59.208;18.216;2024-03-23T08:53:37;5.70;99.90
12682;DHT22;6405;59.208;18.216;2024-03-23T08:56:04;5.70;99.90
12682;DHT22;6405;59.208;18.216;2024-03-23T08:58:31;5.70;99.90
12682;DHT22;6405;59.208;18.216;2024-03-23T09:03:30;5.80;99.90
12682;DHT22;6405;59.208;18.216;2024-03-23T09:05:56;5.80;99.90
12682;DHT22;6405;59.208;18.216;2024-03-23T09:08:23;5.90;99.90
12682;DHT22;6405;59.208;18.216;2024-03-23T09:10:49;6.00;99.90
12682;DHT22;6405;59.208;18.216;2024-03-23T09:13:15;6.00;99.90
12682;DHT22;6405;59.208;18.216;2024-03-23T09:15:51;6.10;99.90
12682;DHT22;6405;59.208;18.216;2024-03-23T09:18:19;6.20;99.90
12682;DHT22;6405;59.208;18.216;2024-03-23T09:20:45;6.10;99.90
12682;DHT22;6405;59.208;18.216;2024-03-23T09:23:10;6.20;99.90
12682;DHT22;6405;59.208;18.216;2024-03-23T09:25:39;6.10;99.90
12682;DHT22;6405;59.208;18.216;2024-03-23T09:28:06;6.30;99.90
12682;DHT22;6405;59.208;18.216;2024-03-23T09:30:35;6.40;99.90
12682;DHT22;6405;59.208;18.216;2024-03-23T09:33:01;6.40;99.90
12682;DHT22;6405;59.208;18.216;2024-03-23T09:35:27;6.40;99.90
12682;DHT22;6405;59.208;18.216;2024-03-23T09:37:52;6.40;99.90
12682;DHT22;6405;59.208;18.216;2024-03-23T09:40:18;6.40;99.90
12682;DHT22;6405;59.208;18.216;2024-03-23T09:42:52;6.40;99.90
12682;DHT22;6405;59.208;18.216;2024-03-23T09:45:26;6.40;99.90
12682;DHT22;6405;59.208;18.216;2024-03-23T09:47:52;6.60;99.90
12682;DHT22;6405;59.208;18.216;2024-03-23T09:50:18;6.50;99.90
12682;DHT22;6405;59.208;18.216;2024-03-23T09:52:47;6.50;99.90
12682;DHT22;6405;59.208;18.216;2024-03-23T09:55:13;6.70;99.90
12682;DHT22;6405;59.208;18.216;2024-03-23T09:57:42;6.80;99.90
12682;DHT22;6405;59.208;18.216;2024-03-23T10:00:08;7.00;99.90
12682;DHT22;6405;59.208;18.216;2024-03-23T10:02:35;7.10;99.90
12682;DHT22;6405;59.208;18.216;2024-03-23T10:05:01;7.10;99.90
12682;DHT22;6405;59.208;18.216;2024-03-23T10:07:27;7.00;99.90
12682;DHT22;6405;59.208;18.216;2024-03-23T10:09:56;7.00;99.90
12682;DHT22;6405;59.208;18.216;2024-03-23T10:12:23;7.10;99.90
12682;DHT22;6405;59.208;18.216;2024-03-23T10:14:50;7.10;99.90
12682;DHT22;6405;59.208;18.216;2024-03-23T10:17:20;7.20;99.90
12682;DHT22;6405;59.208;18.216;2024-03-23T10:19:49;7.30;99.90
12682;DHT22;6405;59.208;18.216;2024-03-23T10:22:21;7.40;99.90
12682;DHT22;6405;59.208;18.216;2024-03-23T10:24:48;7.40;99.90
12682;DHT22;6405;59.208;18.216;2024-03-23T10:27:18;7.60;99.90
12682;DHT22;6405;59.208;18.216;2024-03-23T10:29:48;7.60;99.90
12682;DHT22;6405;59.208;18.216;2024-03-23T10:32:15;7.50;99.90
12682;DHT22;6405;59.208;18.216;2024-03-23T10:34:41;7.40;99.90
12682;DHT22;6405;59.208;18.216;2024-03-23T10:37:08;7.20;99.90
12682;DHT22;6405;59.208;18.216;2024-03-23T10:39:38;7.20;99.90
12682;DHT22;6405;59.208;18.216;2024-03-23T10:42:08;7.30;99.90
12682;DHT22;6405;59.208;18.216;2024-03-23T10:44:36;7.40;99.90
12682;DHT22;6405;59.208;18.216;2024-03-23T10:47:03;7.30;99.90
12682;DHT22;6405;59.208;18.216;2024-03-23T10:49:29;7.40;99.90
12682;DHT22;6405;59.208;18.216;2024-03-23T10:51:57;7.40;99.90
12682;DHT22;6405;59.208;18.216;2024-03-23T10:54:27;7.40;99.90
12682;DHT22;6405;59.208;18.216;2024-03-23T10:59:22;7.40;99.90
12682;DHT22;6405;59.208;18.216;2024-03-23T11:01:59;7.60;99.90
12682;DHT22;6405;59.208;18.216;2024-03-23T11:04:44;7.50;99.90
12682;DHT22;6405;59.208;18.216;2024-03-23T11:07:28;7.60;99.90
12682;DHT22;6405;59.208;18.216;2024-03-23T11:09:54;7.60;99.90
12682;DHT22;6405;59.208;18.216;2024-03-23T11:14:54;7.60;99.90
12682;DHT22;6405;59.208;18.216;2024-03-23T11:17:21;7.60;99.90
12682;DHT22;6405;59.208;18.216;2024-03-23T11:20:00;7.70;99.90
12682;DHT22;6405;59.208;18.216;2024-03-23T11:22:47;7.60;99.90
12682;DHT22;6405;59.208;18.216;2024-03-23T11:25:14;7.60;99.90
12682;DHT22;6405;59.208;18.216;2024-03-23T11:27:40;7.60;99.90
12682;DHT22;6405;59.208;18.216;2024-03-23T11:30:19;7.60;99.90
12682;DHT22;6405;59.208;18.216;2024-03-23T11:32:49;7.60;99.90
12682;DHT22;6405;59.208;18.216;2024-03-23T11:35:34;7.70;99.90
12682;DHT22;6405;59.208;18.216;2024-03-23T11:38:08;7.80;99.90
12682;DHT22;6405;59.208;18.216;2024-03-23T11:40:56;7.90;99.90
12682;DHT22;6405;59.208;18.216;2024-03-23T11:43:21;8.20;99.90
12682;DHT22;6405;59.208;18.216;2024-03-23T11:45:49;8.50;99.90
12682;DHT22;6405;59.208;18.216;2024-03-23T11:48:23;8.30;99.90
12682;DHT22;6405;59.208;18.216;2024-03-23T11:50:50;8.30;99.90
12682;DHT22;6405;59.208;18.216;2024-03-23T11:53:23;8.30;99.90
12682;DHT22;6405;59.208;18.216;2024-03-23T11:58:21;8.70;99.90
12682;DHT22;6405;59.208;18.216;2024-03-23T12:01:00;8.90;99.90
12682;DHT22;6405;59.208;18.216;2024-03-23T12:03:31;8.90;99.90
12682;DHT22;6405;59.208;18.216;2024-03-23T12:06:00;8.90;99.90
12682;DHT22;6405;59.208;18.216;2024-03-23T12:08:36;8.80;99.90
12682;DHT22;6405;59.208;18.216;2024-03-23T12:11:16;8.90;99.90
12682;DHT22;6405;59.208;18.216;2024-03-23T12:13:44;9.10;99.90
12682;DHT22;6405;59.208;18.216;2024-03-23T12:18:41;9.30;99.90
12682;DHT22;6405;59.208;18.216;2024-03-23T12:21:07;9.30;99.90
12682;DHT22;6405;59.208;18.216;2024-03-23T12:23:34;9.40;99.90
12682;DHT22;6405;59.208;18.216;2024-03-23T12:26:00;9.40;99.90
12682;DHT22;6405;59.208;18.216;2024-03-23T12:28:26;9.50;99.90
12682;DHT22;6405;59.208;18.216;2024-03-23T12:30:52;9.70;99.90
12682;DHT22;6405;59.208;18.216;2024-03-23T12:33:20;9.60;99.90
12682;DHT22;6405;59.208;18.216;2024-03-23T12:35:45;9.60;99.90
12682;DHT22;6405;59.208;18.216;2024-03-23T12:38:11;9.30;99.90
12682;DHT22;6405;59.208;18.216;2024-03-23T12:40:37;9.10;99.90
12682;DHT22;6405;59.208;18.216;2024-03-23T12:43:02;9.00;99.90
12682;DHT22;6405;59.208;18.216;2024-03-23T12:45:28;9.00;99.90
12682;DHT22;6405;59.208;18.216;2024-03-23T12:47:54;9.10;99.90
12682;DHT22;6405;59.208;18.216;2024-03-23T12:50:20;9.50;99.90
12682;DHT22;6405;59.208;18.216;2024-03-23T12:52:46;9.70;99.90
12682;DHT22;6405;59.208;18.216;2024-03-23T12:55:12;10.00;99.90
12682;DHT22;6405;59.208;18.216;2024-03-23T12:57:38;10.20;99.90
12682;DHT22;6405;59.208;18.216;2024-03-23T13:00:04;10.20;99.90
12682;DHT22;6405;59.208;18.216;2024-03-23T13:02:30;10.20;99.90
12682;DHT22;6405;59.208;18.216;2024-03-23T13:04:56;10.10;99.90
12682;DHT22;6405;59.208;18.216;2024-03-23T13:07:23;10.00;99.90
12682;DHT22;6405;59.208;18.216;2024-03-23T13:09:52;10.00;99.90
12682;DHT22;6405;59.208;18.216;2024-03-23T13:12:21;9.90;99.90
12682;DHT22;6405;59.208;18.216;2024-03-23T13:14:47;9.80;99.90
12682;DHT22;6405;59.208;18.216;2024-03-23T13:17:13;9.60;99.90
12682;DHT22;6405;59.208;18.216;2024-03-23T13:19:39;9.50;99.90
12682;DHT22;6405;59.208;18.216;2024-03-23T13:22:05;9.40;99.90
12682;DHT22;6405;59.208;18.216;2024-03-23T13:24:31;9.30;99.90
12682;DHT22;6405;59.208;18.216;2024-03-23T13:26:57;9.20;99.90
12682;DHT22;6405;59.208;18.216;2024-03-23T13:29:24;9.10;99.90
12682;DHT22;6405;59.208;18.216;2024-03-23T13:31:51;8.90;99.90
12682;DHT22;6405;59.208;18.216;2024-03-23T13:34:17;8.70;99.90
12682;DHT22;6405;59.208;18.216;2024-03-23T13:36:44;8.70;99.90
12682;DHT22;6405;59.208;18.216;2024-03-23T13:39:11;8.80;99.90
12682;DHT22;6405;59.208;18.216;2024-03-23T13:41:40;8.80;99.90
12682;DHT22;6405;59.208;18.216;2024-03-23T13:44:07;9.00;99.90
12682;DHT22;6405;59.208;18.216;2024-03-23T13:46:33;9.20;99.90
12682;DHT22;6405;59.208;18.216;2024-03-23T13:48:59;9.30;99.90
12682;DHT22;6405;59.208;18.216;2024-03-23T13:51:25;9.10;99.90
12682;DHT22;6405;59.208;18.216;2024-03-23T13:53:55;8.90;99.90
12682;DHT22;6405;59.208;18.216;2024-03-23T13:56:22;8.50;99.90
12682;DHT22;6405;59.208;18.216;2024-03-23T13:58:48;8.20;99.90
12682;DHT22;6405;59.208;18.216;2024-03-23T14:01:17;8.00;99.90
12682;DHT22;6405;59.208;18.216;2024-03-23T14:03:43;7.80;99.90
12682;DHT22;6405;59.208;18.216;2024-03-23T14:06:10;7.70;99.90
12682;DHT22;6405;59.208;18.216;2024-03-23T14:08:37;7.60;99.90
12682;DHT22;6405;59.208;18.216;2024-03-23T14:11:08;7.60;99.90
12682;DHT22;6405;59.208;18.216;2024-03-23T14:13:37;7.50;99.90
12682;DHT22;6405;59.208;18.216;2024-03-23T14:16:03;7.50;99.90
12682;DHT22;6405;59.208;18.216;2024-03-23T14:18:29;7.60;99.90
12682;DHT22;6405;59.208;18.216;2024-03-23T14:21:00;7.60;99.90
12682;DHT22;6405;59.208;18.216;2024-03-23T14:23:29;7.50;99.90
12682;DHT22;6405;59.208;18.216;2024-03-23T14:25:58;7.10;99.90
12682;DHT22;6405;59.208;18.216;2024-03-23T14:28:23;6.90;99.90
12682;DHT22;6405;59.208;18.216;2024-03-23T14:30:50;6.70;99.90
12682;DHT22;6405;59.208;18.216;2024-03-23T14:33:16;6.60;99.90
12682;DHT22;6405;59.208;18.216;2024-03-23T14:35:43;6.50;99.90
12682;DHT22;6405;59.208;18.216;2024-03-23T14:38:17;6.50;99.90
12682;DHT22;6405;59.208;18.216;2024-03-23T14:40:42;6.50;99.90
12682;DHT22;6405;59.208;18.216;2024-03-23T14:43:08;6.60;99.90
12682;DHT22;6405;59.208;18.216;2024-03-23T14:45:34;6.80;99.90
12682;DHT22;6405;59.208;18.216;2024-03-23T14:47:59;6.70;99.90
12682;DHT22;6405;59.208;18.216;2024-03-23T14:50:26;6.70;99.90
12682;DHT22;6405;59.208;18.216;2024-03-23T14:52:51;6.70;99.90
12682;DHT22;6405;59.208;18.216;2024-03-23T14:55:17;6.90;99.90
12682;DHT22;6405;59.208;18.216;2024-03-23T14:57:43;7.00;99.90
12682;DHT22;6405;59.208;18.216;2024-03-23T15:00:10;7.00;99.90
12682;DHT22;6405;59.208;18.216;2024-03-23T15:02:39;7.10;99.90
12682;DHT22;6405;59.208;18.216;2024-03-23T15:05:07;7.00;99.90
12682;DHT22;6405;59.208;18.216;2024-03-23T15:07:36;7.00;99.90
12682;DHT22;6405;59.208;18.216;2024-03-23T15:10:06;6.90;99.90
12682;DHT22;6405;59.208;18.216;2024-03-23T15:12:32;6.90;99.90
12682;DHT22;6405;59.208;18.216;2024-03-23T15:15:01;6.80;99.90
12682;DHT22;6405;59.208;18.216;2024-03-23T15:17:26;6.90;99.90
12682;DHT22;6405;59.208;18.216;2024-03-23T15:19:52;6.80;99.90
12682;DHT22;6405;59.208;18.216;2024-03-23T15:22:19;6.90;99.90
12682;DHT22;6405;59.208;18.216;2024-03-23T15:24:46;6.80;99.90
12682;DHT22;6405;59.208;18.216;2024-03-23T15:27:12;6.70;99.90
12682;DHT22;6405;59.208;18.216;2024-03-23T15:29:41;6.60;99.90
12682;DHT22;6405;59.208;18.216;2024-03-23T15:32:11;6.50;99.90
12682;DHT22;6405;59.208;18.216;2024-03-23T15:34:36;6.40;99.90
12682;DHT22;6405;59.208;18.216;2024-03-23T15:37:02;6.30;99.90
12682;DHT22;6405;59.208;18.216;2024-03-23T15:39:28;6.30;99.90
12682;DHT22;6405;59.208;18.216;2024-03-23T15:41:54;6.20;99.90
12682;DHT22;6405;59.208;18.216;2024-03-23T15:44:20;6.10;99.90
12682;DHT22;6405;59.208;18.216;2024-03-23T15:46:46;6.10;99.90
12682;DHT22;6405;59.208;18.216;2024-03-23T15:49:12;6.00;99.90
12682;DHT22;6405;59.208;18.216;2024-03-23T15:51:37;6.00;99.90
12682;DHT22;6405;59.208;18.216;2024-03-23T15:54:05;6.00;99.90
12682;DHT22;6405;59.208;18.216;2024-03-23T15:56:30;5.90;99.90
12682;DHT22;6405;59.208;18.216;2024-03-23T15:58:56;5.80;99.90
12682;DHT22;6405;59.208;18.216;2024-03-23T16:01:30;5.70;99.90
12682;DHT22;6405;59.208;18.216;2024-03-23T16:03:55;5.60;99.90
12682;DHT22;6405;59.208;18.216;2024-03-23T16:06:21;5.50;99.90
12682;DHT22;6405;59.208;18.216;2024-03-23T16:08:47;5.40;99.90
12682;DHT22;6405;59.208;18.216;2024-03-23T16:11:12;5.30;99.90
12682;DHT22;6405;59.208;18.216;2024-03-23T16:13:38;5.30;99.90
12682;DHT22;6405;59.208;18.216;2024-03-23T16:16:06;5.20;99.90
12682;DHT22;6405;59.208;18.216;2024-03-23T16:18:34;5.20;99.90
12682;DHT22;6405;59.208;18.216;2024-03-23T16:21:02;5.10;99.90
12682;DHT22;6405;59.208;18.216;2024-03-23T16:23:28;5.00;99.90
12682;DHT22;6405;59.208;18.216;2024-03-23T16:25:55;5.00;99.90
12682;DHT22;6405;59.208;18.216;2024-03-23T16:28:28;5.00;99.90
12682;DHT22;6405;59.208;18.216;2024-03-23T16:33:24;4.90;99.90
12682;DHT22;6405;59.208;18.216;2024-03-23T16:36:00;4.90;99.90
12682;DHT22;6405;59.208;18.216;2024-03-23T16:38:27;4.80;99.90
12682;DHT22;6405;59.208;18.216;2024-03-23T16:40:58;4.80;99.90
12682;DHT22;6405;59.208;18.216;2024-03-23T16:43:25;4.70;99.90
12682;DHT22;6405;59.208;18.216;2024-03-23T16:45:58;4.70;99.90
12682;DHT22;6405;59.208;18.216;2024-03-23T16:48:24;4.70;99.90
12682;DHT22;6405;59.208;18.216;2024-03-23T16:50:50;4.60;99.90
12682;DHT22;6405;59.208;18.216;2024-03-23T16:53:16;4.50;99.90